createdAt,value
2019-01-21T00:00:38.939Z,101115.42
2019-01-21T00:03:14.355Z,101119.62
2019-01-21T00:05:42.670Z,101123.12
2019-01-21T00:08:12.027Z,101127.84
2019-01-21T00:10:41.684Z,101129.59
2019-01-21T00:13:14.074Z,101126.55
2019-01-21T00:15:45.924Z,101127.09
2019-01-21T00:18:17.533Z,101120.62
2019-01-21T00:20:48.063Z,101125.00
2019-01-21T00:23:20.954Z,101125.00
2019-01-21T00:25:53.779Z,101131.47
2019-01-21T00:28:23.206Z,101130.74
2019-01-21T00:30:52.862Z,101130.62
2019-01-21T00:33:22.560Z,101132.62
2019-01-21T00:35:55.340Z,101133.22
2019-01-21T00:38:24.704Z,101124.34
2019-01-21T00:40:54.287Z,101132.70
2019-01-21T00:43:24.511Z,101127.16
2019-01-21T00:45:54.823Z,101124.84
2019-01-21T00:48:26.238Z,101127.58
2019-01-21T00:50:57.526Z,101130.30
2019-01-21T00:53:28.989Z,101127.61
2019-01-21T00:55:59.482Z,101129.67
2019-01-21T00:58:29.230Z,101131.83
2019-01-21T01:01:02.349Z,101135.63
2019-01-21T01:03:32.012Z,101138.21
2019-01-21T01:06:01.752Z,101139.77
2019-01-21T01:08:31.135Z,101144.06
2019-01-21T01:11:01.108Z,101145.19
2019-01-21T01:13:30.861Z,101141.52
2019-01-21T01:16:01.983Z,101142.67
2019-01-21T01:18:33.464Z,101139.08
2019-01-21T01:21:04.886Z,101142.47
2019-01-21T01:23:34.797Z,101145.80
2019-01-21T01:26:04.131Z,101149.64
2019-01-21T01:28:34.019Z,101144.95
2019-01-21T01:31:03.452Z,101149.91
2019-01-21T01:33:32.824Z,101146.06
2019-01-21T01:36:14.070Z,101149.48
2019-01-21T01:38:43.708Z,101150.02
2019-01-21T01:41:13.463Z,101142.23
2019-01-21T01:43:45.291Z,101150.88
2019-01-21T01:46:15.025Z,101147.95
2019-01-21T01:48:44.699Z,101148.42
2019-01-21T01:51:15.010Z,101142.55
2019-01-21T01:53:46.890Z,101142.02
2019-01-21T01:56:16.307Z,101145.36
2019-01-21T01:58:45.744Z,101142.44
2019-01-21T02:01:15.336Z,101140.95
2019-01-21T02:03:45.063Z,101134.45
2019-01-21T02:06:15.260Z,101140.35
2019-01-21T02:08:48.231Z,101144.60
2019-01-21T02:11:17.848Z,101147.42
2019-01-21T02:13:47.603Z,101140.72
2019-01-21T02:16:16.975Z,101142.02
2019-01-21T02:18:47.714Z,101143.97
2019-01-21T02:21:17.217Z,101146.41
2019-01-21T02:23:48.887Z,101140.94
2019-01-21T02:26:20.644Z,101136.70
2019-01-21T02:29:08.288Z,101144.45
2019-01-21T02:32:09.979Z,101140.94
2019-01-21T02:34:49.517Z,101144.25
2019-01-21T02:37:32.738Z,101140.80
2019-01-21T02:40:26.814Z,101145.05
2019-01-21T02:43:20.337Z,101139.38
2019-01-21T02:46:09.639Z,101139.08
2019-01-21T02:48:55.968Z,101136.07
2019-01-21T02:51:33.379Z,101137.02
2019-01-21T02:54:27.061Z,101129.86
2019-01-21T02:57:23.485Z,101129.20
2019-01-21T03:00:19.832Z,101134.61
2019-01-21T03:02:57.003Z,101126.91
2019-01-21T03:05:37.043Z,101129.34
2019-01-21T03:08:17.650Z,101127.52
2019-01-21T03:11:01.646Z,101128.44
2019-01-21T03:13:53.731Z,101136.66
2019-01-21T03:16:58.567Z,101132.33
2019-01-21T03:19:41.761Z,101132.02
2019-01-21T03:22:31.180Z,101138.17
2019-01-21T03:25:43.324Z,101132.29
2019-01-21T03:28:29.636Z,101133.58
2019-01-21T03:31:49.390Z,101137.40
2019-01-21T03:34:32.565Z,101135.14
2019-01-21T03:37:09.534Z,101142.89
2019-01-21T03:40:01.405Z,101135.16
2019-01-21T03:43:12.251Z,101138.17
2019-01-21T03:46:01.507Z,101142.06
2019-01-21T03:48:35.638Z,101149.38
2019-01-21T03:51:18.722Z,101145.79
2019-01-21T03:53:55.914Z,101144.91
2019-01-21T03:56:30.213Z,101139.38
2019-01-21T03:59:12.821Z,101142.95
2019-01-21T04:02:06.580Z,101144.87
2019-01-21T04:05:01.811Z,101144.61
2019-01-21T04:07:47.638Z,101140.46
2019-01-21T04:10:37.185Z,101137.79
2019-01-21T04:13:31.894Z,101143.47
2019-01-21T04:16:14.811Z,101135.73
2019-01-21T04:18:49.359Z,101138.32
2019-01-21T04:21:31.966Z,101138.32
2019-01-21T04:24:12.501Z,101136.70
2019-01-21T04:26:53.044Z,101129.77
2019-01-21T04:30:02.300Z,101138.42
2019-01-21T04:32:42.055Z,101141.11
2019-01-21T04:35:34.735Z,101143.75
2019-01-21T04:38:31.473Z,101144.91
2019-01-21T04:41:22.782Z,101142.58
2019-01-21T04:44:02.706Z,101143.44
2019-01-21T04:46:36.945Z,101146.91
2019-01-21T04:49:34.239Z,101143.16
2019-01-21T04:52:08.792Z,101146.66
2019-01-21T04:55:16.302Z,101153.95
2019-01-21T04:58:14.722Z,101153.55
2019-01-21T05:00:48.951Z,101156.07
2019-01-21T05:03:37.434Z,101152.95
2019-01-21T05:06:44.796Z,101152.34
2019-01-21T05:09:25.594Z,101166.58
2019-01-21T05:12:17.596Z,101155.69
2019-01-21T05:15:29.056Z,101158.02
2019-01-21T05:18:49.487Z,101156.03
2019-01-21T05:21:32.477Z,101156.91
2019-01-21T05:24:21.712Z,101157.34
2019-01-21T05:27:31.115Z,101154.57
2019-01-21T05:30:23.482Z,101164.61
2019-01-21T05:33:12.296Z,101157.85
2019-01-21T05:36:05.575Z,101160.80
2019-01-21T05:38:57.881Z,101153.14
2019-01-21T05:42:09.687Z,101154.59
2019-01-21T05:44:44.206Z,101155.93
2019-01-21T05:47:42.012Z,101147.15
2019-01-21T05:50:28.095Z,101160.64
2019-01-21T05:53:33.936Z,101154.48
2019-01-21T05:56:13.681Z,101161.27
2019-01-21T05:59:10.073Z,101159.66
2019-01-21T06:02:06.654Z,101155.62
2019-01-21T06:04:46.706Z,101157.01
2019-01-21T06:07:52.086Z,101158.72
2019-01-21T06:10:32.175Z,101163.68
2019-01-21T06:13:12.540Z,101166.20
2019-01-21T06:16:10.329Z,101163.73
2019-01-21T06:19:03.886Z,101163.88
2019-01-21T06:21:46.658Z,101166.33
2019-01-21T06:24:36.144Z,101166.52
2019-01-21T06:27:22.026Z,101169.37
2019-01-21T06:29:59.348Z,101170.80
2019-01-21T06:33:09.365Z,101174.81
2019-01-21T06:35:55.049Z,101174.01
2019-01-21T06:38:32.118Z,101175.48
2019-01-21T06:41:27.285Z,101172.00
2019-01-21T06:44:07.353Z,101176.39
2019-01-21T06:47:00.735Z,101176.48
2019-01-21T06:49:46.761Z,101178.49
2019-01-21T06:52:32.601Z,101184.90
2019-01-21T06:55:40.098Z,101180.56
2019-01-21T06:58:47.337Z,101179.19
2019-01-21T07:01:44.829Z,101185.76
2019-01-21T07:04:33.872Z,101194.39
2019-01-21T07:07:28.762Z,101195.70
2019-01-21T07:10:18.344Z,101194.32
2019-01-21T07:13:10.877Z,101189.81
2019-01-21T07:16:02.105Z,101191.62
2019-01-21T07:18:39.085Z,101190.86
2019-01-21T07:21:28.218Z,101187.07
2019-01-21T07:24:21.890Z,101188.33
2019-01-21T07:27:01.490Z,101186.70
2019-01-21T07:29:53.997Z,101179.52
2019-01-21T07:32:45.600Z,101177.98
2019-01-21T07:35:28.900Z,101177.48
2019-01-21T07:38:18.003Z,101184.23
2019-01-21T07:41:07.043Z,101183.33
2019-01-21T07:44:07.834Z,101188.54
2019-01-21T07:46:53.612Z,101187.32
2019-01-21T07:49:50.512Z,101197.25
2019-01-21T07:52:42.583Z,101195.64
2019-01-21T07:55:53.186Z,101191.80
2019-01-21T07:59:03.682Z,101197.64
2019-01-21T08:01:56.485Z,101199.55
2019-01-21T08:04:49.157Z,101199.87
2019-01-21T08:07:37.844Z,101202.22
2019-01-21T08:10:44.921Z,101202.87
2019-01-21T08:13:30.817Z,101202.90
2019-01-21T08:16:07.963Z,101207.78
2019-01-21T08:18:50.956Z,101201.74
2019-01-21T08:21:50.191Z,101205.35
2019-01-21T08:24:36.724Z,101207.06
2019-01-21T08:27:25.919Z,101206.79
2019-01-21T08:30:19.996Z,101202.55
2019-01-21T08:33:21.658Z,101204.18
2019-01-21T08:36:10.545Z,101209.63
2019-01-21T08:38:53.825Z,101206.09
2019-01-21T08:41:28.141Z,101212.05
2019-01-21T08:44:10.924Z,101204.34
2019-01-21T08:47:02.904Z,101208.45
2019-01-21T08:49:59.598Z,101202.65
2019-01-21T08:52:45.195Z,101199.64
2019-01-21T08:55:55.338Z,101198.64
2019-01-21T08:58:38.742Z,101210.26
2019-01-21T09:01:44.382Z,101198.16
2019-01-21T09:04:49.757Z,101203.48
2019-01-21T09:07:56.151Z,101200.36
2019-01-21T09:10:47.870Z,101194.24
2019-01-21T09:13:40.673Z,101161.50
2019-01-21T09:16:44.833Z,101197.38
2019-01-21T09:19:42.847Z,101201.01
2019-01-21T09:22:17.130Z,101203.50
2019-01-21T09:25:06.411Z,101207.55
2019-01-21T09:27:40.975Z,101216.37
2019-01-21T09:30:34.559Z,101212.28
2019-01-21T09:33:38.086Z,101210.42
2019-01-21T09:36:39.226Z,101208.94
2019-01-21T09:39:36.641Z,101218.56
2019-01-21T09:42:16.872Z,101210.92
2019-01-21T09:44:59.767Z,101213.70
2019-01-21T09:47:27.743Z,101211.33
2019-01-21T09:49:57.405Z,101210.77
2019-01-21T09:52:27.043Z,101211.75
2019-01-21T09:54:56.410Z,101213.59
2019-01-21T09:57:26.169Z,101206.97
2019-01-21T09:59:55.569Z,101212.58
2019-01-21T10:02:32.537Z,101208.97
2019-01-21T10:05:02.825Z,101206.30
2019-01-21T10:07:36.007Z,101208.83
2019-01-21T10:10:28.638Z,101196.73
2019-01-21T10:13:30.922Z,101194.73
2019-01-21T10:16:16.735Z,101198.75
2019-01-21T10:19:12.003Z,101199.95
2019-01-21T10:22:17.295Z,101195.74
2019-01-21T10:25:12.199Z,101189.31
2019-01-21T10:28:16.578Z,101193.73
2019-01-21T10:30:54.186Z,101191.42
2019-01-21T10:33:47.437Z,101181.22
2019-01-21T10:36:39.223Z,101175.98
2019-01-21T10:39:49.433Z,101173.56
2019-01-21T10:42:32.402Z,101161.95
2019-01-21T10:45:31.907Z,101158.91
2019-01-21T10:48:15.214Z,101166.87
2019-01-21T10:51:07.258Z,101153.41
2019-01-21T10:54:00.931Z,101123.87
2019-01-21T10:56:43.409Z,101151.26
2019-01-21T10:59:23.665Z,101151.45
2019-01-21T11:02:31.093Z,101140.17
2019-01-21T11:05:07.940Z,101125.58
2019-01-21T11:07:56.793Z,101124.58
2019-01-21T11:10:39.930Z,101123.31
2019-01-21T11:13:44.319Z,101112.18
2019-01-21T11:16:39.228Z,101102.73
2019-01-21T11:19:28.384Z,101102.43
2019-01-21T11:22:02.589Z,101092.66
2019-01-21T11:24:52.012Z,101091.98
2019-01-21T11:27:28.887Z,101082.85
2019-01-21T11:30:03.350Z,101079.83
2019-01-21T11:32:59.153Z,101073.62
2019-01-21T11:35:45.294Z,101066.69
2019-01-21T11:38:55.376Z,101073.55
2019-01-21T11:41:30.010Z,101062.67
2019-01-21T11:44:15.854Z,101057.19
2019-01-21T11:47:08.753Z,101053.32
2019-01-21T11:49:51.396Z,101053.83
2019-01-21T11:52:25.888Z,101045.28
2019-01-21T11:55:00.175Z,101044.11
2019-01-21T11:57:55.926Z,101045.31
2019-01-21T12:01:03.254Z,101039.36
2019-01-21T12:04:03.277Z,101032.44
2019-01-21T12:06:40.728Z,101019.77
2019-01-21T12:09:26.436Z,101024.39
2019-01-21T12:12:03.694Z,101022.65
2019-01-21T12:15:12.493Z,101014.95
2019-01-21T12:17:56.197Z,101021.69
2019-01-21T12:20:38.978Z,101013.44
2019-01-21T12:23:40.002Z,101008.76
2019-01-21T12:26:22.903Z,101017.81
2019-01-21T12:29:19.443Z,101005.03
2019-01-21T12:32:14.777Z,100995.30
2019-01-21T12:34:58.102Z,100994.56
2019-01-21T12:37:38.173Z,100993.45
2019-01-21T12:40:18.551Z,100990.91
2019-01-21T12:43:07.396Z,100986.09
2019-01-21T12:45:59.468Z,100986.14
2019-01-21T12:48:39.371Z,100982.45
2019-01-21T12:51:28.395Z,100980.53
2019-01-21T12:54:14.537Z,100978.16
2019-01-21T12:57:05.020Z,100978.27
2019-01-21T12:59:56.843Z,100974.01
2019-01-21T13:02:33.846Z,100967.92
2019-01-21T13:05:22.442Z,100960.06
2019-01-21T13:08:14.911Z,100964.44
2019-01-21T13:11:09.743Z,100963.05
2019-01-21T13:14:01.791Z,100960.37
2019-01-21T13:16:50.698Z,100955.81
2019-01-21T13:20:00.837Z,100956.87
2019-01-21T13:22:51.590Z,100954.57
2019-01-21T13:25:42.317Z,100948.56
2019-01-21T13:28:31.177Z,100929.55
2019-01-21T13:31:17.092Z,100929.55
2019-01-21T13:34:13.816Z,100934.63
2019-01-21T13:37:12.503Z,100926.47
2019-01-21T13:40:13.584Z,100912.88
2019-01-21T13:42:53.354Z,100903.75
2019-01-21T13:45:43.778Z,100905.84
2019-01-21T13:48:20.872Z,100900.87
2019-01-21T13:51:16.056Z,100897.14
2019-01-21T13:53:55.992Z,100896.00
2019-01-21T13:56:38.993Z,100892.07
2019-01-21T13:59:25.290Z,100890.30
2019-01-21T14:02:02.449Z,100883.96
2019-01-21T14:05:03.329Z,100889.80
2019-01-21T14:08:01.221Z,100884.48
2019-01-21T14:10:44.622Z,100884.52
2019-01-21T14:13:42.673Z,100873.73
2019-01-21T14:16:46.902Z,100868.95
2019-01-21T14:19:26.110Z,100877.92
2019-01-21T14:22:08.496Z,100872.75
2019-01-21T14:25:14.378Z,100871.58
2019-01-21T14:28:10.718Z,100876.12
2019-01-21T14:31:10.047Z,100867.83
2019-01-21T14:33:50.014Z,100867.01
2019-01-21T14:36:29.468Z,100860.84
2019-01-21T14:39:20.989Z,100860.06
2019-01-21T14:42:00.893Z,100860.05
2019-01-21T14:45:03.398Z,100862.70
2019-01-21T14:47:54.385Z,100861.39
2019-01-21T14:50:40.552Z,100856.10
2019-01-21T14:53:20.045Z,100862.53
2019-01-21T14:56:10.924Z,100870.03
2019-01-21T14:58:45.430Z,100871.06
2019-01-21T15:01:55.422Z,100867.53
2019-01-21T15:04:35.140Z,100868.22
2019-01-21T15:07:15.147Z,100861.52
2019-01-21T15:09:49.457Z,100863.22
2019-01-21T15:12:29.490Z,100861.23
2019-01-21T15:15:24.218Z,100861.84
2019-01-21T15:18:33.030Z,100859.39
2019-01-21T15:21:12.643Z,100849.31
2019-01-21T15:24:03.368Z,100850.30
2019-01-21T15:26:52.675Z,100854.02
2019-01-21T15:29:41.852Z,100857.71
2019-01-21T15:32:37.148Z,100861.55
2019-01-21T15:35:31.723Z,100858.70
2019-01-21T15:38:29.189Z,100859.84
2019-01-21T15:41:09.197Z,100860.91
2019-01-21T15:43:46.199Z,100867.21
2019-01-21T15:46:47.582Z,100861.05
2019-01-21T15:49:27.617Z,100863.87
2019-01-21T15:52:19.686Z,100857.34
2019-01-21T15:55:11.823Z,100860.50
2019-01-21T15:57:49.031Z,100863.79
2019-01-21T16:00:25.889Z,100861.39
2019-01-21T16:03:23.853Z,100860.36
2019-01-21T16:06:10.169Z,100856.08
2019-01-21T16:08:47.510Z,100853.16
2019-01-21T16:11:47.092Z,100842.16
2019-01-21T16:14:17.699Z,100854.06
2019-01-21T16:17:03.772Z,100853.43
2019-01-21T16:19:34.070Z,100854.34
2019-01-21T16:22:20.180Z,100853.79
2019-01-21T16:25:03.553Z,100865.36
2019-01-21T16:28:14.066Z,100857.67
2019-01-21T16:31:00.486Z,100867.11
2019-01-21T16:34:17.501Z,100860.85
2019-01-21T16:37:07.484Z,100863.30
2019-01-21T16:39:57.639Z,100864.02
2019-01-21T16:42:27.540Z,100869.53
2019-01-21T16:44:58.675Z,100866.27
2019-01-21T16:47:28.273Z,100863.41
2019-01-21T16:49:57.628Z,100856.97
2019-01-21T16:52:27.369Z,100860.54
2019-01-21T16:54:56.751Z,100852.05
2019-01-21T16:57:26.062Z,100853.11
2019-01-21T16:59:55.666Z,100854.02
2019-01-21T17:02:25.256Z,100855.66
2019-01-21T17:04:54.695Z,100853.36
2019-01-21T17:07:24.420Z,100860.88
2019-01-21T17:09:53.999Z,100864.49
2019-01-21T17:12:23.607Z,100868.91
2019-01-21T17:14:57.364Z,100863.78
2019-01-21T17:17:30.212Z,100866.30
2019-01-21T17:19:59.815Z,100862.73
2019-01-21T17:22:29.203Z,100865.17
2019-01-21T17:24:58.575Z,100868.28
2019-01-21T17:27:28.215Z,100865.41
2019-01-21T17:29:57.543Z,100862.04
2019-01-21T17:32:27.052Z,100857.97
2019-01-21T17:34:56.857Z,100855.45
2019-01-21T17:37:26.229Z,100858.25
2019-01-21T17:39:55.632Z,100856.30
2019-01-21T17:42:25.342Z,100858.30
2019-01-21T17:44:54.960Z,100859.09
2019-01-21T17:47:24.337Z,100858.37
2019-01-21T17:49:54.710Z,100859.81
2019-01-21T17:52:27.361Z,100858.19
2019-01-21T17:54:56.722Z,100862.47
2019-01-21T17:57:26.387Z,100852.62
2019-01-21T17:59:56.027Z,100849.44
2019-01-21T18:02:25.705Z,100842.97
2019-01-21T18:04:55.331Z,100836.84
2019-01-21T18:07:24.727Z,100833.84
2019-01-21T18:09:54.068Z,100834.51
2019-01-21T18:12:24.084Z,100831.05
2019-01-21T18:14:54.615Z,100826.79
2019-01-21T18:17:26.003Z,100818.39
2019-01-21T18:19:55.647Z,100817.94
2019-01-21T18:22:30.089Z,100815.27
2019-01-21T18:25:00.818Z,100822.11
2019-01-21T18:27:31.521Z,100818.15
2019-01-21T18:30:02.023Z,100820.94
2019-01-21T18:32:31.542Z,100824.59
2019-01-21T18:35:01.353Z,100827.83
2019-01-21T18:37:30.998Z,100830.70
2019-01-21T18:40:00.631Z,100827.06
2019-01-21T18:42:29.981Z,100828.15
2019-01-21T18:44:59.950Z,100824.38
2019-01-21T18:47:29.623Z,100822.75
2019-01-21T18:50:00.048Z,100818.03
2019-01-21T18:52:31.217Z,100813.45
2019-01-21T18:55:03.158Z,100807.20
2019-01-21T18:57:34.020Z,100801.05
2019-01-21T19:00:04.347Z,100802.53
2019-01-21T19:02:33.978Z,100803.16
2019-01-21T19:05:03.773Z,100803.43
2019-01-21T19:07:33.105Z,100803.25
2019-01-21T19:10:02.761Z,100806.44
2019-01-21T19:12:32.396Z,100730.34
2019-01-21T19:15:02.149Z,100801.04
2019-01-21T19:17:31.825Z,100803.16
2019-01-21T19:20:01.500Z,100802.08
2019-01-21T19:22:30.873Z,100804.95
2019-01-21T19:25:00.268Z,100799.20
2019-01-21T19:27:29.876Z,100799.66
2019-01-21T19:29:59.519Z,100806.30
2019-01-21T19:32:29.250Z,100799.69
2019-01-21T19:34:58.911Z,100803.27
2019-01-21T19:37:28.249Z,100807.01
2019-01-21T19:39:57.625Z,100798.88
2019-01-21T19:42:27.055Z,100804.95
2019-01-21T19:44:56.673Z,100807.01
2019-01-21T19:47:26.364Z,100804.77
2019-01-21T19:49:55.994Z,100812.31
2019-01-21T19:52:25.696Z,100805.52
2019-01-21T19:54:55.080Z,100744.58
2019-01-21T19:57:24.423Z,100798.19
2019-01-21T19:59:54.064Z,100791.62
2019-01-21T20:02:23.728Z,100795.98
2019-01-21T20:04:53.120Z,100794.94
2019-01-21T20:07:22.628Z,100801.31
2019-01-21T20:09:52.298Z,100792.33
2019-01-21T20:12:21.674Z,100796.56
2019-01-21T20:14:51.113Z,100795.70
2019-01-21T20:17:20.807Z,100797.13
2019-01-21T20:19:50.187Z,100797.75
2019-01-21T20:22:22.754Z,100797.48
2019-01-21T20:24:52.289Z,100795.97
2019-01-21T20:27:21.619Z,100796.47
2019-01-21T20:29:51.228Z,100790.48
2019-01-21T20:32:20.974Z,100789.80
2019-01-21T20:34:50.356Z,100716.53
2019-01-21T20:37:20.012Z,100785.05
2019-01-21T20:39:49.341Z,100798.34
2019-01-21T20:42:18.923Z,100795.12
2019-01-21T20:44:48.737Z,100791.78
2019-01-21T20:47:18.093Z,100790.20
2019-01-21T20:49:47.792Z,100795.70
2019-01-21T20:52:17.268Z,100797.89
2019-01-21T20:54:46.638Z,100801.23
2019-01-21T20:57:15.971Z,100801.28
2019-01-21T20:59:45.625Z,100796.94
2019-01-21T21:02:15.260Z,100792.09
2019-01-21T21:04:44.998Z,100794.17
2019-01-21T21:07:14.638Z,100787.33
2019-01-21T21:09:44.259Z,100777.77
2019-01-21T21:12:13.878Z,100772.56
2019-01-21T21:14:43.285Z,100774.34
2019-01-21T21:17:12.756Z,100768.64
2019-01-21T21:19:42.619Z,100767.66
2019-01-21T21:22:12.115Z,100772.47
2019-01-21T21:24:42.079Z,100722.63
2019-01-21T21:27:11.577Z,100780.63
2019-01-21T21:29:41.363Z,100782.00
2019-01-21T21:32:11.058Z,100788.72
2019-01-21T21:34:40.776Z,100787.66
2019-01-21T21:37:10.392Z,100787.98
2019-01-21T21:39:39.742Z,100793.31
2019-01-21T21:42:09.756Z,100792.81
2019-01-21T21:44:39.107Z,100793.19
2019-01-21T21:47:08.496Z,100787.70
2019-01-21T21:49:37.869Z,100780.47
2019-01-21T21:52:07.680Z,100782.41
2019-01-21T21:54:37.103Z,100777.82
2019-01-21T21:57:07.083Z,100779.52
2019-01-21T21:59:36.666Z,100776.19
2019-01-21T22:02:06.002Z,100775.33
2019-01-21T22:04:35.346Z,100778.77
2019-01-21T22:07:04.679Z,100772.94
2019-01-21T22:09:34.024Z,100768.94
2019-01-21T22:12:03.632Z,100776.22
2019-01-21T22:14:34.009Z,100765.41
2019-01-21T22:17:03.675Z,100769.41
2019-01-21T22:19:33.368Z,100766.20
2019-01-21T22:22:02.974Z,100765.41
2019-01-21T22:24:32.402Z,100764.00
2019-01-21T22:27:02.064Z,100764.77
2019-01-21T22:29:31.646Z,100759.89
2019-01-21T22:32:00.998Z,100758.92
2019-01-21T22:34:30.655Z,100756.03
2019-01-21T22:37:00.418Z,100755.75
2019-01-21T22:39:30.033Z,100748.80
2019-01-21T22:41:59.674Z,100750.67
2019-01-21T22:44:29.064Z,100743.48
2019-01-21T22:46:58.717Z,100746.00
2019-01-21T22:49:28.403Z,100742.91
2019-01-21T22:51:58.029Z,100738.40
2019-01-21T22:54:27.692Z,100730.88
2019-01-21T22:56:57.334Z,100732.63
2019-01-21T22:59:26.707Z,100728.40
2019-01-21T23:01:56.138Z,100724.58
2019-01-21T23:04:25.769Z,100729.98
2019-01-21T23:06:55.119Z,100730.47
2019-01-21T23:09:24.729Z,100727.87
2019-01-21T23:11:54.067Z,100731.77
2019-01-21T23:14:23.450Z,100719.50
2019-01-21T23:16:53.139Z,100716.89
2019-01-21T23:19:22.489Z,100719.88
2019-01-21T23:21:52.122Z,100722.81
2019-01-21T23:24:21.468Z,100713.95
2019-01-21T23:26:50.824Z,100718.00
2019-01-21T23:29:20.154Z,100716.30
2019-01-21T23:31:49.498Z,100707.94
2019-01-21T23:34:19.120Z,100709.69
2019-01-21T23:36:48.915Z,100699.63
2019-01-21T23:39:18.315Z,100702.54
2019-01-21T23:41:47.729Z,100703.35
2019-01-21T23:44:17.318Z,100704.36
2019-01-21T23:46:46.941Z,100700.17
2019-01-21T23:49:16.833Z,100696.64
2019-01-21T23:51:46.436Z,100692.41
2019-01-21T23:54:16.072Z,100688.66
2019-01-21T23:56:45.777Z,100689.59
2019-01-21T23:59:15.399Z,100688.99
